Time;durP1;ratioP1;P1;durP2;ratioP2;P2;SDS_P1;SDS_P2;PMS_P1;PMS_P2;Temp;Humidity;BMP_temperature;BMP_pressure;BME280_temperature;BME280_humidity;BME280_pressure;Samples;Min_cycle;Max_cycle;Signal;HPM_P1;HPM_P2
2021/12/06 00:00:57;;;;;;;30.90;18.35;;;;;;;;;;5072385;28;20055;-67
2021/12/06 00:03:29;;;;;;;27.83;17.52;;;;;;;;;;5074119;28;20485;-68
2021/12/06 00:05:56;;;;;;;30.25;17.92;;;;;;;;;;5082236;28;20056;-68
2021/12/06 00:08:22;;;;;;;26.27;17.45;;;;;;;;;;5074195;28;20059;-68
2021/12/06 00:10:51;;;;;;;28.55;17.45;;;;;;;;;;5073118;28;20148;-67
2021/12/06 00:13:20;;;;;;;28.98;16.73;;;;;;;;;;5072821;28;20467;-67
2021/12/06 00:15:49;;;;;;;29.08;17.38;;;;;;;;;;5074422;28;20057;-67
2021/12/06 00:18:16;;;;;;;29.73;19.13;;;;;;;;;;5058329;28;20618;-68
2021/12/06 00:20:44;;;;;;;30.83;16.80;;;;;;;;;;5073635;28;20052;-67
2021/12/06 00:23:10;;;;;;;29.58;17.17;;;;;;;;;;5074470;28;20053;-67
2021/12/06 00:25:37;;;;;;;33.17;18.95;;;;;;;;;;5067288;28;20092;-67
2021/12/06 00:28:03;;;;;;;26.75;17.23;;;;;;;;;;5058732;28;20515;-68
2021/12/06 00:30:29;;;;;;;27.63;18.00;;;;;;;;;;5073637;28;21127;-68
2021/12/06 00:32:56;;;;;;;26.65;18.05;;;;;;;;;;5073517;28;20095;-67
2021/12/06 00:35:24;;;;;;;30.90;18.05;;;;;;;;;;5077178;28;20045;-68
2021/12/06 00:37:58;;;;;;;30.70;18.30;;;;;;;;;;5074231;28;20057;-67
2021/12/06 00:40:26;;;;;;;28.88;18.95;;;;;;;;;;5073926;28;20052;-68
2021/12/06 00:42:53;;;;;;;32.63;19.98;;;;;;;;;;5073635;28;20073;-67
2021/12/06 00:45:19;;;;;;;33.85;19.73;;;;;;;;;;5073945;28;20052;-68
2021/12/06 00:47:46;;;;;;;40.80;21.45;;;;;;;;;;5072402;28;20084;-68
2021/12/06 00:50:15;;;;;;;35.92;20.77;;;;;;;;;;5054699;28;20078;-68
2021/12/06 00:52:41;;;;;;;33.38;20.75;;;;;;;;;;5073734;28;20052;-68
2021/12/06 00:55:09;;;;;;;40.97;21.88;;;;;;;;;;5077306;28;20053;-68
2021/12/06 00:57:36;;;;;;;36.90;20.88;;;;;;;;;;5077024;28;20060;-67
2021/12/06 01:00:08;;;;;;;38.58;22.33;;;;;;;;;;5073626;28;20581;-67
2021/12/06 01:02:34;;;;;;;35.90;21.17;;;;;;;;;;5071305;28;20083;-67
2021/12/06 01:05:01;;;;;;;38.10;20.77;;;;;;;;;;5089845;28;20513;-68
2021/12/06 01:07:28;;;;;;;34.45;20.63;;;;;;;;;;5072895;28;20069;-69
2021/12/06 01:09:54;;;;;;;39.58;22.77;;;;;;;;;;5073231;28;20127;-68
2021/12/06 01:12:20;;;;;;;45.05;23.92;;;;;;;;;;5073625;28;20132;-68
2021/12/06 01:14:47;;;;;;;40.63;22.98;;;;;;;;;;5073790;28;20507;-67
2021/12/06 01:17:13;;;;;;;50.92;23.88;;;;;;;;;;5069368;28;20132;-67
2021/12/06 01:19:39;;;;;;;39.15;21.80;;;;;;;;;;5072098;28;20085;-68
2021/12/06 01:24:41;;;;;;;41.70;22.23;;;;;;;;;;5073410;28;20052;-69
2021/12/06 01:27:28;;;;;;;41.85;22.30;;;;;;;;;;5073514;28;20053;-68
2021/12/06 01:40:46;;;;;;;43.20;22.50;;;;;;;;;;5052465;28;20156;-69
2021/12/06 01:43:12;;;;;;;39.08;23.50;;;;;;;;;;5053272;28;20137;-68
2021/12/06 01:45:38;;;;;;;43.72;22.40;;;;;;;;;;5068445;28;20132;-69
2021/12/06 01:48:05;;;;;;;46.72;23.88;;;;;;;;;;5067908;28;20053;-68
2021/12/06 01:50:31;;;;;;;50.65;24.48;;;;;;;;;;5072579;28;20056;-68
2021/12/06 01:53:00;;;;;;;43.72;23.55;;;;;;;;;;5072604;28;20064;-68
2021/12/06 01:55:28;;;;;;;45.00;22.88;;;;;;;;;;5072912;28;21054;-68
2021/12/06 01:57:55;;;;;;;43.40;24.25;;;;;;;;;;5072951;28;20128;-68
2021/12/06 02:00:50;;;;;;;44.25;23.33;;;;;;;;;;5077490;28;20523;-68
2021/12/06 02:03:17;;;;;;;44.73;23.17;;;;;;;;;;5063736;28;20087;-68
2021/12/06 02:05:45;;;;;;;43.00;23.83;;;;;;;;;;5076594;28;20484;-67
2021/12/06 02:08:11;;;;;;;41.05;21.17;;;;;;;;;;5076125;28;20501;-69
2021/12/06 02:10:38;;;;;;;45.40;22.77;;;;;;;;;;5072907;28;20080;-68
2021/12/06 02:13:06;;;;;;;38.00;21.17;;;;;;;;;;5072568;28;20166;-69
2021/12/06 02:15:42;;;;;;;49.38;23.90;;;;;;;;;;5072706;28;20064;-68
2021/12/06 02:18:17;;;;;;;41.38;21.88;;;;;;;;;;5072588;28;20084;-68
2021/12/06 02:20:57;;;;;;;37.33;21.27;;;;;;;;;;5072437;28;20059;-67
2021/12/06 02:23:23;;;;;;;38.50;21.13;;;;;;;;;;5065024;28;20120;-69
2021/12/06 02:25:51;;;;;;;36.22;21.38;;;;;;;;;;5072900;28;20060;-69
2021/12/06 02:28:17;;;;;;;35.45;20.80;;;;;;;;;;5072499;28;20049;-67
2021/12/06 02:30:44;;;;;;;41.63;21.60;;;;;;;;;;5071920;28;20084;-68
2021/12/06 02:33:10;;;;;;;40.35;22.13;;;;;;;;;;5072573;28;20132;-68
2021/12/06 02:35:37;;;;;;;39.45;20.63;;;;;;;;;;5080683;28;20132;-68
2021/12/06 02:38:07;;;;;;;44.40;23.95;;;;;;;;;;5072433;28;20049;-68
2021/12/06 02:40:34;;;;;;;41.58;21.95;;;;;;;;;;5071791;28;20091;-68
2021/12/06 02:43:02;;;;;;;48.15;22.90;;;;;;;;;;5072310;28;20057;-67
2021/12/06 02:45:28;;;;;;;34.80;21.40;;;;;;;;;;5072116;28;20063;-68
2021/12/06 02:47:56;;;;;;;45.20;22.00;;;;;;;;;;5074998;28;20164;-67
2021/12/06 02:50:24;;;;;;;38.15;22.08;;;;;;;;;;5075119;28;20081;-69
2021/12/06 02:52:51;;;;;;;43.78;21.15;;;;;;;;;;5074827;28;20055;-69
2021/12/06 02:55:34;;;;;;;39.05;21.80;;;;;;;;;;5075985;28;20439;-69
2021/12/06 02:58:13;;;;;;;38.10;21.25;;;;;;;;;;5087431;28;20048;-69
2021/12/06 03:00:44;;;;;;;45.35;21.20;;;;;;;;;;5075169;28;20053;-68
2021/12/06 03:03:10;;;;;;;39.25;22.10;;;;;;;;;;5075238;28;20708;-68
2021/12/06 03:05:37;;;;;;;42.83;22.30;;;;;;;;;;5076068;28;20044;-68
2021/12/06 03:08:04;;;;;;;53.70;25.27;;;;;;;;;;5073931;28;20497;-69
2021/12/06 03:10:30;;;;;;;55.63;25.92;;;;;;;;;;5075404;28;20600;-68
2021/12/06 03:12:57;;;;;;;67.53;28.52;;;;;;;;;;5075708;28;20060;-67
2021/12/06 03:15:23;;;;;;;59.55;26.23;;;;;;;;;;5074720;28;20065;-68
2021/12/06 03:17:50;;;;;;;59.83;25.83;;;;;;;;;;5075308;28;20503;-68
2021/12/06 03:20:16;;;;;;;66.70;25.20;;;;;;;;;;5075403;28;20136;-69
2021/12/06 03:22:44;;;;;;;54.55;25.83;;;;;;;;;;5075654;28;20151;-69
2021/12/06 03:25:11;;;;;;;61.38;27.52;;;;;;;;;;5094213;28;20115;-68
2021/12/06 03:27:38;;;;;;;71.78;27.60;;;;;;;;;;5096010;28;20052;-69
2021/12/06 03:30:06;;;;;;;57.45;26.20;;;;;;;;;;5075694;28;20501;-67
2021/12/06 03:32:32;;;;;;;60.08;25.95;;;;;;;;;;5077074;28;20053;-69
2021/12/06 03:34:59;;;;;;;60.22;25.83;;;;;;;;;;5075207;28;20435;-69
2021/12/06 03:37:25;;;;;;;64.47;26.30;;;;;;;;;;5074580;28;20055;-68
2021/12/06 03:39:52;;;;;;;61.85;25.83;;;;;;;;;;5074634;28;20136;-69
2021/12/06 03:42:20;;;;;;;59.63;26.25;;;;;;;;;;5075092;28;20059;-69
2021/12/06 03:44:46;;;;;;;68.63;26.48;;;;;;;;;;5074946;28;20071;-68
2021/12/06 03:47:15;;;;;;;69.90;27.70;;;;;;;;;;5080094;28;20053;-67
2021/12/06 03:49:42;;;;;;;65.00;25.27;;;;;;;;;;5075395;28;20497;-68
2021/12/06 03:52:08;;;;;;;67.75;27.52;;;;;;;;;;5074180;28;20140;-67
2021/12/06 03:54:35;;;;;;;69.93;27.23;;;;;;;;;;5071398;28;20144;-68
2021/12/06 03:57:02;;;;;;;66.25;25.75;;;;;;;;;;5055201;28;20050;-69
2021/12/06 03:59:29;;;;;;;59.28;24.67;;;;;;;;;;5073797;28;20473;-69
2021/12/06 04:01:55;;;;;;;58.85;25.13;;;;;;;;;;5074451;28;20131;-68
2021/12/06 04:04:22;;;;;;;68.80;27.65;;;;;;;;;;5074598;28;20060;-67
2021/12/06 04:06:48;;;;;;;62.78;26.92;;;;;;;;;;5074436;28;20049;-69
2021/12/06 04:09:15;;;;;;;61.08;27.38;;;;;;;;;;5074471;28;20049;-68
2021/12/06 04:11:42;;;;;;;64.68;25.50;;;;;;;;;;5075155;28;20049;-68
2021/12/06 04:14:09;;;;;;;58.70;25.85;;;;;;;;;;5074558;28;20143;-68
2021/12/06 04:16:35;;;;;;;57.42;26.70;;;;;;;;;;5074184;28;20099;-68
2021/12/06 04:19:03;;;;;;;57.88;25.55;;;;;;;;;;5074192;28;20049;-68
2021/12/06 04:21:29;;;;;;;60.17;24.95;;;;;;;;;;5087358;28;20055;-67
2021/12/06 04:23:56;;;;;;;56.67;24.63;;;;;;;;;;5083785;28;20552;-68
2021/12/06 04:26:22;;;;;;;52.90;24.10;;;;;;;;;;5074314;28;20508;-67
2021/12/06 04:28:57;;;;;;;54.53;25.85;;;;;;;;;;5074388;28;20124;-67
2021/12/06 04:31:24;;;;;;;55.35;26.42;;;;;;;;;;5072700;28;20513;-68
2021/12/06 04:33:50;;;;;;;52.97;24.08;;;;;;;;;;5074068;28;20057;-68
2021/12/06 04:36:36;;;;;;;51.80;23.75;;;;;;;;;;5074083;28;20049;-68
2021/12/06 04:39:04;;;;;;;61.35;25.63;;;;;;;;;;5077728;28;20543;-68
2021/12/06 04:41:31;;;;;;;55.45;27.33;;;;;;;;;;5072627;28;20140;-68
2021/12/06 04:43:57;;;;;;;60.13;25.98;;;;;;;;;;5074087;28;20049;-68
2021/12/06 04:46:23;;;;;;;51.13;27.00;;;;;;;;;;5074207;28;20611;-67
2021/12/06 04:48:50;;;;;;;54.25;24.05;;;;;;;;;;5074052;28;20057;-68
2021/12/06 04:51:16;;;;;;;62.38;25.63;;;;;;;;;;5083548;28;20098;-68
2021/12/06 04:53:43;;;;;;;49.72;24.88;;;;;;;;;;5079711;28;20402;-68
2021/12/06 04:56:09;;;;;;;53.85;26.45;;;;;;;;;;5073694;28;20049;-67
2021/12/06 04:58:43;;;;;;;54.50;25.88;;;;;;;;;;5075669;28;20062;-68
2021/12/06 05:01:13;;;;;;;49.13;25.20;;;;;;;;;;5085490;28;20204;-68
2021/12/06 05:03:41;;;;;;;49.38;24.15;;;;;;;;;;5073841;28;20049;-68
2021/12/06 05:06:12;;;;;;;45.03;23.55;;;;;;;;;;5073268;28;20048;-69
2021/12/06 05:08:42;;;;;;;46.83;24.13;;;;;;;;;;5073358;28;20048;-67
2021/12/06 05:11:09;;;;;;;50.75;24.98;;;;;;;;;;5073458;28;20132;-68
2021/12/06 05:13:37;;;;;;;49.30;24.67;;;;;;;;;;5073898;28;20063;-68
2021/12/06 05:16:03;;;;;;;50.70;25.27;;;;;;;;;;5089146;28;20087;-68
2021/12/06 05:18:30;;;;;;;52.47;25.17;;;;;;;;;;5093981;28;20052;-68
2021/12/06 05:20:56;;;;;;;53.15;26.80;;;;;;;;;;5084346;28;20063;-68
2021/12/06 05:23:22;;;;;;;55.05;25.85;;;;;;;;;;5073659;28;20083;-68
2021/12/06 05:25:49;;;;;;;50.75;25.67;;;;;;;;;;5073783;28;20131;-67
2021/12/06 05:28:17;;;;;;;55.90;27.63;;;;;;;;;;5073388;28;20057;-68
2021/12/06 05:30:44;;;;;;;57.00;27.08;;;;;;;;;;5072807;28;20055;-69
2021/12/06 05:33:17;;;;;;;58.13;26.20;;;;;;;;;;5074085;28;20428;-69
2021/12/06 05:35:44;;;;;;;52.85;25.25;;;;;;;;;;5078426;28;20615;-71
2021/12/06 05:38:12;;;;;;;54.58;25.27;;;;;;;;;;5093731;28;20048;-69
2021/12/06 05:40:38;;;;;;;58.25;27.15;;;;;;;;;;5080519;28;20056;-69
2021/12/06 05:43:05;;;;;;;61.38;25.77;;;;;;;;;;5093503;28;20059;-70
2021/12/06 05:45:33;;;;;;;56.72;27.27;;;;;;;;;;5091758;28;20063;-69
2021/12/06 05:47:59;;;;;;;53.72;24.70;;;;;;;;;;5072971;28;20057;-68
2021/12/06 05:50:26;;;;;;;55.55;25.15;;;;;;;;;;5062579;28;20045;-69
2021/12/06 05:52:54;;;;;;;49.65;23.70;;;;;;;;;;5070295;28;20055;-68
2021/12/06 05:55:21;;;;;;;53.25;26.58;;;;;;;;;;5072456;28;20053;-68
2021/12/06 05:57:47;;;;;;;56.95;26.90;;;;;;;;;;5066412;28;20416;-68
2021/12/06 06:00:16;;;;;;;56.58;25.33;;;;;;;;;;5072804;28;20057;-68
2021/12/06 06:02:43;;;;;;;54.45;26.70;;;;;;;;;;5063623;28;20104;-69
2021/12/06 06:05:10;;;;;;;50.83;26.00;;;;;;;;;;5066554;28;20048;-69
2021/12/06 06:07:36;;;;;;;57.92;26.92;;;;;;;;;;5071578;28;20134;-69
2021/12/06 06:10:03;;;;;;;54.40;26.38;;;;;;;;;;5073032;28;20056;-70
2021/12/06 06:12:29;;;;;;;59.47;26.52;;;;;;;;;;5073068;28;20481;-70
2021/12/06 06:14:56;;;;;;;56.63;26.52;;;;;;;;;;5072752;28;20061;-70
2021/12/06 06:17:22;;;;;;;52.50;27.52;;;;;;;;;;5071774;28;20608;-68
2021/12/06 06:19:50;;;;;;;56.97;27.33;;;;;;;;;;5052122;28;20063;-68
2021/12/06 06:22:17;;;;;;;59.45;26.48;;;;;;;;;;5073215;28;20072;-68
2021/12/06 06:24:43;;;;;;;55.30;27.08;;;;;;;;;;5075440;28;20140;-69
2021/12/06 06:27:10;;;;;;;52.97;25.25;;;;;;;;;;5076313;28;20136;-69
2021/12/06 06:29:36;;;;;;;59.80;27.65;;;;;;;;;;5075046;28;20045;-69
2021/12/06 06:32:03;;;;;;;52.05;26.83;;;;;;;;;;5068222;28;20053;-69
2021/12/06 06:34:29;;;;;;;59.10;26.92;;;;;;;;;;5074701;28;20095;-66
2021/12/06 06:36:56;;;;;;;55.03;26.15;;;;;;;;;;5068871;28;20053;-68
2021/12/06 06:39:22;;;;;;;54.65;27.77;;;;;;;;;;5071972;28;20513;-70
2021/12/06 06:41:50;;;;;;;56.45;26.63;;;;;;;;;;5080833;28;20062;-69
2021/12/06 06:44:17;;;;;;;50.13;26.52;;;;;;;;;;5070254;28;20940;-67
2021/12/06 06:46:44;;;;;;;53.47;26.40;;;;;;;;;;5075401;28;20057;-69
2021/12/06 06:49:12;;;;;;;57.60;27.25;;;;;;;;;;5080074;28;20045;-68
2021/12/06 06:51:38;;;;;;;51.45;27.10;;;;;;;;;;5073849;28;20172;-68
2021/12/06 06:54:05;;;;;;;56.95;28.40;;;;;;;;;;5079243;28;20067;-69
2021/12/06 06:56:32;;;;;;;57.30;28.17;;;;;;;;;;5086723;28;20049;-68
2021/12/06 06:58:58;;;;;;;54.00;27.38;;;;;;;;;;5075013;28;21065;-68
2021/12/06 07:01:25;;;;;;;53.25;26.45;;;;;;;;;;5073806;28;20055;-69
2021/12/06 07:03:54;;;;;;;56.60;27.52;;;;;;;;;;5076503;28;20966;-67
2021/12/06 07:06:21;;;;;;;54.22;26.45;;;;;;;;;;5076790;28;20067;-66
2021/12/06 07:08:47;;;;;;;61.35;28.25;;;;;;;;;;5072594;28;20053;-69
2021/12/06 07:11:14;;;;;;;56.33;28.13;;;;;;;;;;5073644;28;20088;-68
2021/12/06 07:13:40;;;;;;;57.08;28.58;;;;;;;;;;5073304;28;20542;-69
2021/12/06 07:16:07;;;;;;;57.08;29.45;;;;;;;;;;5073362;28;20053;-69
2021/12/06 07:18:34;;;;;;;57.00;28.75;;;;;;;;;;5071451;28;20879;-68
2021/12/06 07:21:00;;;;;;;51.78;27.00;;;;;;;;;;5073203;28;20057;-68
2021/12/06 07:23:27;;;;;;;59.50;29.33;;;;;;;;;;5069450;28;20052;-69
2021/12/06 07:25:54;;;;;;;62.53;29.70;;;;;;;;;;5073201;28;20077;-69
2021/12/06 07:28:20;;;;;;;55.72;27.00;;;;;;;;;;5072525;28;20056;-69
2021/12/06 07:30:47;;;;;;;54.95;27.27;;;;;;;;;;5072743;28;20059;-69
2021/12/06 07:33:13;;;;;;;61.60;28.80;;;;;;;;;;5071744;28;20063;-67
2021/12/06 07:35:40;;;;;;;57.92;28.25;;;;;;;;;;5073385;28;20137;-67
2021/12/06 07:38:07;;;;;;;56.28;27.73;;;;;;;;;;5064916;28;20135;-68
2021/12/06 07:40:34;;;;;;;55.38;27.63;;;;;;;;;;5073737;28;20136;-69
2021/12/06 07:43:01;;;;;;;53.38;27.80;;;;;;;;;;5073205;28;20578;-69
2021/12/06 07:45:27;;;;;;;50.45;28.30;;;;;;;;;;5072998;28;20488;-69
2021/12/06 07:47:53;;;;;;;56.45;28.90;;;;;;;;;;5073057;28;20053;-67
2021/12/06 07:50:21;;;;;;;50.00;27.77;;;;;;;;;;5071975;28;20140;-69
2021/12/06 07:52:48;;;;;;;59.47;26.73;;;;;;;;;;5074010;28;20156;-68
2021/12/06 07:55:16;;;;;;;51.55;26.73;;;;;;;;;;5074588;28;20059;-69
2021/12/06 07:57:42;;;;;;;54.83;26.35;;;;;;;;;;5071590;28;20064;-69
2021/12/06 08:00:13;;;;;;;50.15;26.60;;;;;;;;;;5077370;28;20477;-67
2021/12/06 08:02:39;;;;;;;53.40;26.75;;;;;;;;;;5073901;28;20107;-67
2021/12/06 08:07:55;;;;;;;53.50;27.55;;;;;;;;;;5071925;28;20057;-68
2021/12/06 08:10:22;;;;;;;53.58;27.02;;;;;;;;;;5085323;28;20075;-69
2021/12/06 08:12:49;;;;;;;52.92;27.08;;;;;;;;;;5076660;28;20488;-69
2021/12/06 08:15:15;;;;;;;53.13;27.15;;;;;;;;;;5075403;28;20066;-69
2021/12/06 08:17:42;;;;;;;55.78;28.23;;;;;;;;;;5084102;28;20077;-69
2021/12/06 08:20:09;;;;;;;58.03;27.05;;;;;;;;;;5070656;28;20052;-70
2021/12/06 08:22:36;;;;;;;56.20;27.95;;;;;;;;;;5051888;28;20049;-68
2021/12/06 08:25:03;;;;;;;55.53;27.05;;;;;;;;;;5071496;28;20135;-68
2021/12/06 08:27:29;;;;;;;51.85;27.30;;;;;;;;;;5073231;28;20048;-69
2021/12/06 08:29:56;;;;;;;54.15;27.92;;;;;;;;;;5072144;28;20059;-69
2021/12/06 08:32:22;;;;;;;55.30;28.27;;;;;;;;;;5072311;28;20053;-69
2021/12/06 08:34:48;;;;;;;52.03;27.10;;;;;;;;;;5071766;28;20050;-70
2021/12/06 08:37:15;;;;;;;57.13;28.13;;;;;;;;;;5071943;28;20055;-68
2021/12/06 08:39:41;;;;;;;58.45;28.92;;;;;;;;;;5071652;28;20132;-70
2021/12/06 08:42:09;;;;;;;55.88;28.58;;;;;;;;;;5071594;28;20468;-69
2021/12/06 08:44:35;;;;;;;53.97;27.48;;;;;;;;;;5071642;28;20052;-68
2021/12/06 08:47:02;;;;;;;55.78;27.13;;;;;;;;;;5071286;28;20056;-68
2021/12/06 08:49:29;;;;;;;52.92;26.77;;;;;;;;;;5069267;28;20543;-69
2021/12/06 08:51:57;;;;;;;55.97;27.17;;;;;;;;;;5071761;28;20056;-72
2021/12/06 08:54:26;;;;;;;48.70;26.15;;;;;;;;;;5057024;28;20419;-68
2021/12/06 08:56:54;;;;;;;56.92;27.17;;;;;;;;;;5068001;28;20108;-68
2021/12/06 08:59:21;;;;;;;56.80;28.13;;;;;;;;;;5068245;28;20053;-68
2021/12/06 09:01:47;;;;;;;63.00;29.75;;;;;;;;;;5071934;28;20049;-70
2021/12/06 09:04:36;;;;;;;58.28;29.52;;;;;;;;;;5073100;28;20060;-71
2021/12/06 09:07:10;;;;;;;58.20;28.73;;;;;;;;;;5071410;28;20053;-69
2021/12/06 09:09:37;;;;;;;48.55;27.02;;;;;;;;;;5070797;28;20044;-68
2021/12/06 09:12:03;;;;;;;45.30;27.27;;;;;;;;;;5070469;28;20055;-70
2021/12/06 09:14:30;;;;;;;51.13;26.80;;;;;;;;;;5069256;28;20057;-70
2021/12/06 09:16:56;;;;;;;55.83;27.73;;;;;;;;;;5071256;28;20049;-71
2021/12/06 09:19:23;;;;;;;55.25;27.55;;;;;;;;;;5070303;28;20140;-67
2021/12/06 09:21:49;;;;;;;57.17;29.67;;;;;;;;;;5069897;28;20057;-70
2021/12/06 09:24:17;;;;;;;52.33;27.48;;;;;;;;;;5071360;28;20092;-68
2021/12/06 09:26:44;;;;;;;53.80;27.55;;;;;;;;;;5085984;28;20118;-68
2021/12/06 09:29:11;;;;;;;51.75;29.67;;;;;;;;;;5074356;28;20139;-68
2021/12/06 09:31:38;;;;;;;64.05;28.67;;;;;;;;;;5071246;28;20057;-70
2021/12/06 09:34:04;;;;;;;52.90;28.60;;;;;;;;;;5070691;28;20060;-70
2021/12/06 09:36:31;;;;;;;54.70;28.20;;;;;;;;;;5071614;28;20045;-68
2021/12/06 09:38:57;;;;;;;48.85;26.75;;;;;;;;;;5071148;28;20053;-69
2021/12/06 09:41:29;;;;;;;55.13;28.15;;;;;;;;;;5070520;28;20088;-68
2021/12/06 09:43:57;;;;;;;50.75;27.27;;;;;;;;;;5073554;28;20079;-67
2021/12/06 09:46:23;;;;;;;50.80;26.27;;;;;;;;;;5083469;28;20059;-68
2021/12/06 09:48:50;;;;;;;49.65;27.35;;;;;;;;;;5076116;28;20508;-70
2021/12/06 09:51:26;;;;;;;51.03;29.13;;;;;;;;;;5072415;28;20059;-68
2021/12/06 09:53:53;;;;;;;58.38;30.02;;;;;;;;;;5072586;28;20052;-68
2021/12/06 09:56:23;;;;;;;54.70;29.17;;;;;;;;;;5072290;28;20049;-67
2021/12/06 09:58:51;;;;;;;56.22;28.05;;;;;;;;;;5067322;28;20053;-69
2021/12/06 10:01:21;;;;;;;57.85;30.08;;;;;;;;;;5071650;28;20055;-70
2021/12/06 10:03:49;;;;;;;55.90;30.67;;;;;;;;;;5080395;28;20052;-69
2021/12/06 10:06:16;;;;;;;49.05;28.10;;;;;;;;;;5071466;28;20436;-70
2021/12/06 10:08:44;;;;;;;50.50;28.88;;;;;;;;;;5074423;28;20049;-70
2021/12/06 10:11:12;;;;;;;57.42;27.88;;;;;;;;;;5075243;28;20056;-70
2021/12/06 10:13:39;;;;;;;50.65;28.13;;;;;;;;;;5072510;28;20056;-70
2021/12/06 10:16:06;;;;;;;44.20;26.20;;;;;;;;;;5073692;28;20053;-69
2021/12/06 10:18:33;;;;;;;49.47;27.80;;;;;;;;;;5068047;28;20107;-68
2021/12/06 10:21:00;;;;;;;46.80;24.70;;;;;;;;;;5071639;28;20519;-69
2021/12/06 10:23:27;;;;;;;41.35;25.58;;;;;;;;;;5084724;28;20599;-69
2021/12/06 10:25:54;;;;;;;48.90;25.85;;;;;;;;;;5071633;28;20107;-69
2021/12/06 10:28:23;;;;;;;42.45;24.60;;;;;;;;;;5077299;28;20045;-65
2021/12/06 10:30:51;;;;;;;54.17;27.48;;;;;;;;;;5070398;28;20075;-69
2021/12/06 10:33:20;;;;;;;44.55;24.33;;;;;;;;;;5054822;28;20053;-67
2021/12/06 10:35:52;;;;;;;48.88;26.80;;;;;;;;;;5074060;28;20140;-68
2021/12/06 10:38:24;;;;;;;47.67;25.92;;;;;;;;;;5062423;28;20215;-67
2021/12/06 10:40:55;;;;;;;53.90;27.17;;;;;;;;;;5075902;28;20057;-67
2021/12/06 10:43:21;;;;;;;51.33;26.88;;;;;;;;;;5055362;28;20053;-68
2021/12/06 10:45:48;;;;;;;55.65;27.52;;;;;;;;;;5071906;28;20137;-69
2021/12/06 10:48:15;;;;;;;54.78;28.90;;;;;;;;;;5072828;28;20053;-69
2021/12/06 10:50:45;;;;;;;57.63;29.48;;;;;;;;;;5072619;28;20056;-68
2021/12/06 10:53:12;;;;;;;56.85;29.15;;;;;;;;;;5073209;28;20520;-67
2021/12/06 10:55:39;;;;;;;58.47;31.35;;;;;;;;;;5080344;28;20053;-68
2021/12/06 10:58:07;;;;;;;57.40;29.10;;;;;;;;;;5072365;28;20836;-67
2021/12/06 11:00:39;;;;;;;58.47;29.13;;;;;;;;;;5077499;28;20421;-68
2021/12/06 11:03:17;;;;;;;56.05;29.25;;;;;;;;;;5071180;28;20049;-68
2021/12/06 11:05:44;;;;;;;59.55;30.10;;;;;;;;;;5080747;28;20084;-69
2021/12/06 11:08:13;;;;;;;53.60;29.10;;;;;;;;;;5079931;28;20106;-70
2021/12/06 11:10:47;;;;;;;56.95;30.58;;;;;;;;;;5075486;28;20085;-68
2021/12/06 11:13:15;;;;;;;55.85;30.33;;;;;;;;;;5071970;28;20088;-68
2021/12/06 11:16:00;;;;;;;59.28;30.55;;;;;;;;;;5069115;28;20049;-67
2021/12/06 11:18:41;;;;;;;66.20;31.63;;;;;;;;;;5071025;28;20061;-67
2021/12/06 11:21:19;;;;;;;67.80;34.00;;;;;;;;;;5075993;28;20071;-67
2021/12/06 11:24:00;;;;;;;62.65;31.65;;;;;;;;;;5087035;28;20126;-68
2021/12/06 11:26:27;;;;;;;72.65;32.63;;;;;;;;;;5063969;28;20057;-68
2021/12/06 11:28:53;;;;;;;66.05;31.40;;;;;;;;;;5073595;28;20044;-70
2021/12/06 11:31:20;;;;;;;66.05;31.75;;;;;;;;;;5073102;28;21852;-67
2021/12/06 11:34:01;;;;;;;67.78;32.92;;;;;;;;;;5073043;28;20081;-69
2021/12/06 11:36:30;;;;;;;68.43;32.55;;;;;;;;;;5073114;28;20053;-67
2021/12/06 11:38:58;;;;;;;74.43;34.42;;;;;;;;;;5073143;28;20061;-67
2021/12/06 11:41:24;;;;;;;70.95;32.22;;;;;;;;;;5076147;28;20053;-68
2021/12/06 11:43:50;;;;;;;68.55;30.98;;;;;;;;;;5072555;28;20055;-69
2021/12/06 11:46:33;;;;;;;65.50;30.50;;;;;;;;;;5069343;28;20416;-68
2021/12/06 11:48:59;;;;;;;65.15;31.13;;;;;;;;;;5071998;28;20061;-67
2021/12/06 11:51:26;;;;;;;62.47;29.13;;;;;;;;;;5071048;28;20571;-70
2021/12/06 11:53:56;;;;;;;61.97;29.08;;;;;;;;;;5071841;28;20057;-68
2021/12/06 11:56:24;;;;;;;61.45;27.70;;;;;;;;;;5077300;28;20492;-65
2021/12/06 11:58:52;;;;;;;54.55;27.02;;;;;;;;;;5088912;28;20056;-67
2021/12/06 12:01:22;;;;;;;48.35;24.77;;;;;;;;;;5079827;28;21061;-68
2021/12/06 12:03:50;;;;;;;55.70;27.23;;;;;;;;;;5075603;28;20059;-68
2021/12/06 12:06:26;;;;;;;48.53;24.42;;;;;;;;;;5072314;28;20811;-68
2021/12/06 12:09:11;;;;;;;44.35;23.77;;;;;;;;;;5072310;28;20063;-67
2021/12/06 12:11:57;;;;;;;47.92;23.90;;;;;;;;;;5067874;28;20064;-69
2021/12/06 12:14:31;;;;;;;43.10;21.70;;;;;;;;;;5062948;28;20144;-66
2021/12/06 12:16:59;;;;;;;43.90;23.13;;;;;;;;;;5072242;28;20049;-68
2021/12/06 12:19:27;;;;;;;47.22;23.25;;;;;;;;;;5070328;28;20056;-70
2021/12/06 12:21:54;;;;;;;42.00;22.33;;;;;;;;;;5072866;28;20111;-69
2021/12/06 12:24:20;;;;;;;47.30;22.67;;;;;;;;;;5076079;28;20055;-68
2021/12/06 12:26:56;;;;;;;41.75;21.88;;;;;;;;;;5083025;28;20060;-69
2021/12/06 12:29:26;;;;;;;50.38;22.65;;;;;;;;;;5071928;28;20132;-70
2021/12/06 12:31:56;;;;;;;45.47;22.33;;;;;;;;;;5071200;28;20462;-70
2021/12/06 12:34:24;;;;;;;42.38;22.17;;;;;;;;;;5073182;28;20566;-68
2021/12/06 12:36:50;;;;;;;52.60;25.15;;;;;;;;;;5081939;28;20055;-68
2021/12/06 12:39:18;;;;;;;45.75;22.88;;;;;;;;;;5071821;28;20702;-68
2021/12/06 12:41:49;;;;;;;42.30;21.92;;;;;;;;;;5071574;28;20082;-69
2021/12/06 12:44:16;;;;;;;46.35;21.83;;;;;;;;;;5069712;28;20060;-70
2021/12/06 12:46:45;;;;;;;37.38;20.85;;;;;;;;;;5071921;28;20507;-69
2021/12/06 12:49:12;;;;;;;39.92;20.75;;;;;;;;;;5077914;28;20087;-69
2021/12/06 12:51:50;;;;;;;36.88;19.42;;;;;;;;;;5078001;28;20142;-70
2021/12/06 12:54:16;;;;;;;34.05;17.98;;;;;;;;;;5072378;28;20055;-66
2021/12/06 12:56:44;;;;;;;36.97;19.70;;;;;;;;;;5087076;28;20060;-67
2021/12/06 12:59:30;;;;;;;33.72;19.13;;;;;;;;;;5081375;28;20571;-68
2021/12/06 13:02:19;;;;;;;34.08;19.67;;;;;;;;;;5076128;28;20076;-68
2021/12/06 13:04:57;;;;;;;43.45;20.13;;;;;;;;;;5073448;28;20053;-69
2021/12/06 13:07:31;;;;;;;35.17;19.42;;;;;;;;;;5070754;28;20088;-68
2021/12/06 13:10:17;;;;;;;35.38;19.98;;;;;;;;;;5072136;28;20518;-70
2021/12/06 13:13:05;;;;;;;36.63;19.08;;;;;;;;;;5075344;28;20051;-69
2021/12/06 13:15:35;;;;;;;34.72;19.05;;;;;;;;;;5084782;28;20052;-69
2021/12/06 13:18:05;;;;;;;34.67;18.00;;;;;;;;;;5078904;28;20091;-69
2021/12/06 13:20:37;;;;;;;28.02;16.40;;;;;;;;;;5073287;28;20053;-68
2021/12/06 13:23:09;;;;;;;29.20;16.88;;;;;;;;;;5072933;28;20053;-67
2021/12/06 13:25:35;;;;;;;32.28;16.30;;;;;;;;;;5067615;28;20112;-68
2021/12/06 13:28:06;;;;;;;31.48;16.80;;;;;;;;;;5070232;28;20056;-67
2021/12/06 13:30:49;;;;;;;35.40;17.98;;;;;;;;;;5070888;28;20049;-69
2021/12/06 13:33:20;;;;;;;34.63;18.35;;;;;;;;;;5068406;28;20071;-68
2021/12/06 13:35:53;;;;;;;32.72;17.75;;;;;;;;;;5075220;28;20111;-67
2021/12/06 13:38:40;;;;;;;30.83;16.85;;;;;;;;;;5055835;28;20559;-67
2021/12/06 13:41:15;;;;;;;33.70;18.08;;;;;;;;;;5071374;28;20126;-69
2021/12/06 13:43:48;;;;;;;33.65;17.25;;;;;;;;;;5087135;28;20056;-68
2021/12/06 13:46:25;;;;;;;37.60;18.00;;;;;;;;;;5073225;28;20592;-68
2021/12/06 13:48:59;;;;;;;36.95;18.52;;;;;;;;;;5060257;28;20063;-70
2021/12/06 13:51:35;;;;;;;38.85;19.98;;;;;;;;;;5069708;28;20052;-69
2021/12/06 13:54:20;;;;;;;39.28;19.33;;;;;;;;;;5069945;28;20132;-69
2021/12/06 13:56:49;;;;;;;39.78;19.05;;;;;;;;;;5059363;28;20565;-68
2021/12/06 13:59:17;;;;;;;42.92;19.52;;;;;;;;;;5059994;28;20049;-68
2021/12/06 14:01:47;;;;;;;37.22;18.13;;;;;;;;;;5069407;28;20048;-67
2021/12/06 14:04:16;;;;;;;38.60;18.98;;;;;;;;;;5071899;28;20057;-69
2021/12/06 14:06:48;;;;;;;37.50;19.33;;;;;;;;;;5071116;28;20501;-67
2021/12/06 14:09:15;;;;;;;39.30;19.08;;;;;;;;;;5062675;28;20514;-67
2021/12/06 14:11:41;;;;;;;41.58;21.58;;;;;;;;;;5074305;28;20144;-67
2021/12/06 14:14:13;;;;;;;41.80;20.35;;;;;;;;;;5071963;28;20045;-68
2021/12/06 14:16:40;;;;;;;42.08;19.65;;;;;;;;;;5076104;28;20504;-68
2021/12/06 14:19:08;;;;;;;37.58;19.52;;;;;;;;;;5069286;28;20144;-68
2021/12/06 14:21:35;;;;;;;40.33;20.40;;;;;;;;;;5070426;28;20136;-68
2021/12/06 14:24:02;;;;;;;33.58;18.10;;;;;;;;;;5081842;28;20144;-68
2021/12/06 14:26:31;;;;;;;31.33;17.35;;;;;;;;;;5065338;28;20057;-68
2021/12/06 14:28:57;;;;;;;29.92;16.77;;;;;;;;;;5074853;28;20083;-68
2021/12/06 14:31:24;;;;;;;28.85;16.23;;;;;;;;;;5070070;28;20528;-69
2021/12/06 14:33:51;;;;;;;29.48;17.77;;;;;;;;;;5069990;28;20056;-67
2021/12/06 14:36:22;;;;;;;29.90;17.05;;;;;;;;;;5070387;28;20097;-68
2021/12/06 14:39:13;;;;;;;24.85;14.75;;;;;;;;;;5060135;28;20101;-68
2021/12/06 14:41:53;;;;;;;27.08;14.32;;;;;;;;;;5055079;28;20161;-68